Time;durP1;ratioP1;P1;durP2;ratioP2;P2;SDS_P1;SDS_P2;PMS_P1;PMS_P2;Temp;Humidity;BMP_temperature;BMP_pressure;BME280_temperature;BME280_humidity;BME280_pressure;Samples;Min_cycle;Max_cycle;Signal;HPM_P1;HPM_P2
2023/11/15 00:00:48;;;;;;;3.08;0.80;;;20.90;49.60;;;;;;5051050;28;20017;-61
2023/11/15 00:03:16;;;;;;;2.38;0.90;;;20.90;49.60;;;;;;5036414;28;20017;-60
2023/11/15 00:05:45;;;;;;;2.33;1.27;;;20.90;49.60;;;;;;5038932;28;20022;-63
2023/11/15 00:08:11;;;;;;;1.75;0.75;;;20.90;49.60;;;;;;5033728;28;20036;-60
2023/11/15 00:10:40;;;;;;;1.55;0.80;;;20.90;49.60;;;;;;5019304;28;20345;-61
2023/11/15 00:13:08;;;;;;;2.88;1.00;;;20.90;49.60;;;;;;5041278;28;21273;-61
2023/11/15 00:15:34;;;;;;;2.00;0.70;;;20.90;49.70;;;;;;5037855;28;20036;-61
2023/11/15 00:18:04;;;;;;;1.27;0.57;;;20.90;49.70;;;;;;5034073;28;20044;-60
2023/11/15 00:20:33;;;;;;;2.05;0.90;;;20.90;49.70;;;;;;5039296;28;20106;-60
2023/11/15 00:23:03;;;;;;;2.08;0.80;;;20.80;49.60;;;;;;4998754;28;20464;-62
2023/11/15 00:25:29;;;;;;;2.03;0.75;;;20.80;49.70;;;;;;5034661;28;20068;-61
2023/11/15 00:27:55;;;;;;;1.98;0.95;;;20.80;49.70;;;;;;5003253;28;20022;-61
2023/11/15 00:30:22;;;;;;;1.85;0.90;;;20.80;49.70;;;;;;5037956;28;20025;-61
2023/11/15 00:32:48;;;;;;;2.03;0.77;;;20.80;49.70;;;;;;5019993;28;20168;-60
2023/11/15 00:35:14;;;;;;;2.38;0.82;;;20.80;49.70;;;;;;5034549;28;20021;-60
2023/11/15 00:37:42;;;;;;;2.47;0.80;;;20.80;49.70;;;;;;5018954;28;20494;-61
2023/11/15 00:40:20;;;;;;;1.83;0.60;;;20.80;49.80;;;;;;5018665;28;20029;-61
2023/11/15 00:42:46;;;;;;;1.92;0.82;;;20.80;50.40;;;;;;5035804;28;20124;-61
2023/11/15 00:45:12;;;;;;;1.88;0.73;;;20.80;49.80;;;;;;5017042;28;20025;-62
2023/11/15 00:47:41;;;;;;;1.48;0.73;;;20.80;49.80;;;;;;5032801;28;20152;-61
2023/11/15 00:50:08;;;;;;;2.15;0.70;;;20.80;49.80;;;;;;5017727;28;20013;-61
2023/11/15 00:52:34;;;;;;;2.13;0.70;;;20.80;49.80;;;;;;5004848;28;20464;-62
2023/11/15 00:54:59;;;;;;;1.58;0.63;;;20.70;49.80;;;;;;5016593;28;20029;-61
2023/11/15 00:57:26;;;;;;;3.17;0.90;;;20.70;49.80;;;;;;5037961;28;20043;-61
2023/11/15 00:59:54;;;;;;;1.80;0.80;;;20.70;49.80;;;;;;5035716;28;20026;-60
2023/11/15 01:02:21;;;;;;;2.70;0.85;;;20.70;49.90;;;;;;5034846;28;20029;-61
2023/11/15 01:04:50;;;;;;;2.38;0.82;;;20.70;49.90;;;;;;5032458;28;20471;-61
2023/11/15 01:07:16;;;;;;;1.20;0.60;;;20.70;49.90;;;;;;5029956;28;20035;-61
2023/11/15 01:09:42;;;;;;;2.72;0.80;;;20.70;49.90;;;;;;5020773;28;20021;-61
2023/11/15 01:12:08;;;;;;;1.40;0.70;;;20.70;49.90;;;;;;5032108;28;20448;-61
2023/11/15 01:14:35;;;;;;;1.85;0.60;;;20.70;50.00;;;;;;5016434;28;20129;-61
2023/11/15 01:17:01;;;;;;;1.40;0.60;;;20.70;50.00;;;;;;5033894;28;20041;-61
2023/11/15 01:19:26;;;;;;;1.75;0.60;;;20.70;50.00;;;;;;5023173;28;20029;-61
2023/11/15 01:21:53;;;;;;;2.63;0.68;;;20.70;50.60;;;;;;5034384;28;20459;-61
2023/11/15 01:24:19;;;;;;;1.90;0.60;;;20.70;50.00;;;;;;5018775;28;20021;-60
2023/11/15 01:26:45;;;;;;;0.60;0.40;;;20.60;49.90;;;;;;5002858;28;20116;-60
2023/11/15 01:29:11;;;;;;;1.35;0.55;;;20.60;49.90;;;;;;5019857;28;20116;-61
2023/11/15 01:31:37;;;;;;;2.83;0.80;;;20.60;49.90;;;;;;5035920;28;20499;-62
2023/11/15 01:34:03;;;;;;;1.40;0.50;;;20.60;49.90;;;;;;5020155;28;20021;-62
2023/11/15 01:36:29;;;;;;;0.85;0.50;;;20.60;49.80;;;;;;5016520;28;20137;-60
2023/11/15 01:38:55;;;;;;;2.28;0.55;;;20.60;50.40;;;;;;5038564;28;20436;-61
2023/11/15 01:41:23;;;;;;;1.45;0.77;;;20.60;49.80;;;;;;5047862;28;20032;-60
2023/11/15 01:43:49;;;;;;;2.38;0.70;;;20.60;49.80;;;;;;5035109;28;20136;-62
2023/11/15 01:46:18;;;;;;;1.30;0.70;;;20.60;49.80;;;;;;5038358;28;20028;-61
2023/11/15 01:48:44;;;;;;;1.73;0.50;;;20.60;49.80;;;;;;5016576;28;20091;-60
2023/11/15 01:51:10;;;;;;;0.88;0.40;;;20.60;49.70;;;;;;5017898;28;20037;-61
2023/11/15 01:53:38;;;;;;;0.80;0.40;;;20.60;49.70;;;;;;5034937;28;20364;-61
2023/11/15 01:56:06;;;;;;;1.55;0.60;;;20.60;49.70;;;;;;5035924;28;20033;-61
2023/11/15 01:58:32;;;;;;;1.20;0.60;;;20.60;49.70;;;;;;5013725;28;20037;-61
2023/11/15 02:01:01;;;;;;;0.77;0.30;;;20.60;49.70;;;;;;5046658;28;20021;-62
2023/11/15 02:03:27;;;;;;;1.48;0.50;;;20.60;49.70;;;;;;5016400;28;20021;-60
2023/11/15 02:05:53;;;;;;;0.90;0.50;;;20.50;49.60;;;;;;5018274;28;20030;-60
2023/11/15 02:08:19;;;;;;;1.10;0.43;;;20.50;49.60;;;;;;5034969;28;20044;-61
2023/11/15 02:10:45;;;;;;;2.22;0.40;;;20.50;49.70;;;;;;5015929;28;20026;-60
2023/11/15 02:13:25;;;;;;;0.90;0.40;;;20.50;49.70;;;;;;5018503;28;20033;-62
2023/11/15 02:15:52;;;;;;;0.85;0.40;;;20.60;49.70;;;;;;5018888;28;20048;-61
2023/11/15 02:18:19;;;;;;;0.60;0.30;;;20.50;49.60;;;;;;5043860;28;20040;-61
2023/11/15 02:20:46;;;;;;;0.43;0.30;;;20.50;49.60;;;;;;5013230;28;20148;-60
2023/11/15 02:23:13;;;;;;;0.57;0.30;;;20.50;49.60;;;;;;5035407;28;20082;-61
2023/11/15 02:25:40;;;;;;;1.02;0.40;;;20.50;49.50;;;;;;5004686;28;20036;-61
2023/11/15 02:28:08;;;;;;;1.42;0.47;;;20.50;49.50;;;;;;5032371;28;20033;-61
2023/11/15 02:30:34;;;;;;;0.77;0.47;;;20.50;49.50;;;;;;5016905;28;20033;-61
2023/11/15 02:33:00;;;;;;;0.88;0.30;;;20.50;49.70;;;;;;5016085;28;20013;-61
2023/11/15 02:35:27;;;;;;;0.98;0.40;;;20.50;49.50;;;;;;5034382;28;20464;-60
2023/11/15 02:37:52;;;;;;;0.68;0.32;;;20.50;49.50;;;;;;5045910;28;20030;-60
2023/11/15 02:40:18;;;;;;;0.95;0.30;;;20.50;49.50;;;;;;5035469;28;20029;-62
2023/11/15 02:42:44;;;;;;;0.75;0.30;;;20.50;49.60;;;;;;5039534;28;20025;-62
2023/11/15 02:45:10;;;;;;;0.68;0.40;;;20.50;49.50;;;;;;5016363;28;20040;-61
2023/11/15 02:47:36;;;;;;;0.82;0.32;;;20.40;49.40;;;;;;5018498;28;20029;-61
2023/11/15 02:50:03;;;;;;;0.82;0.30;;;20.50;49.50;;;;;;5036428;28;20044;-60
2023/11/15 02:52:29;;;;;;;0.98;0.32;;;20.40;49.40;;;;;;5047141;28;20029;-62
2023/11/15 02:54:55;;;;;;;0.50;0.30;;;20.40;49.40;;;;;;5019393;28;20096;-60
2023/11/15 02:57:21;;;;;;;0.80;0.30;;;20.50;49.50;;;;;;5034795;28;20061;-61
2023/11/15 02:59:47;;;;;;;0.50;0.40;;;20.50;49.50;;;;;;5018132;28;20127;-62
2023/11/15 03:02:14;;;;;;;0.60;0.22;;;20.50;49.50;;;;;;5034885;28;20048;-61
2023/11/15 03:04:40;;;;;;;1.58;0.70;;;20.40;49.50;;;;;;5022347;28;20033;-61
2023/11/15 03:07:05;;;;;;;0.80;0.20;;;20.40;49.50;;;;;;5013172;28;20041;-61
2023/11/15 03:09:31;;;;;;;0.57;0.35;;;20.50;49.60;;;;;;5035938;28;20039;-61
2023/11/15 03:11:57;;;;;;;1.17;0.30;;;20.40;49.50;;;;;;5038171;28;20472;-61
2023/11/15 03:14:25;;;;;;;1.33;0.43;;;20.40;49.60;;;;;;5032854;28;20036;-61
2023/11/15 03:16:52;;;;;;;0.93;0.30;;;20.40;49.50;;;;;;5029792;28;20038;-61
2023/11/15 03:19:18;;;;;;;1.45;0.55;;;20.40;49.50;;;;;;5033916;28;20030;-61
2023/11/15 03:21:44;;;;;;;1.27;0.43;;;20.40;49.60;;;;;;5033736;28;20120;-61
2023/11/15 03:24:10;;;;;;;0.82;0.30;;;20.40;49.60;;;;;;5018099;28;20542;-62
2023/11/15 03:26:36;;;;;;;1.20;0.40;;;20.40;49.60;;;;;;5032826;28;20026;-61
2023/11/15 03:29:02;;;;;;;1.00;0.47;;;20.40;49.70;;;;;;5031386;28;20017;-61
2023/11/15 03:31:30;;;;;;;0.65;0.30;;;20.40;49.70;;;;;;5030772;28;20444;-64
2023/11/15 03:33:56;;;;;;;0.60;0.40;;;20.30;49.60;;;;;;5016797;28;20029;-61
2023/11/15 03:36:22;;;;;;;0.60;0.30;;;20.40;49.70;;;;;;5033196;28;20044;-61
2023/11/15 03:38:48;;;;;;;1.63;0.68;;;20.30;49.90;;;;;;5036511;28;20028;-61
2023/11/15 03:41:14;;;;;;;0.57;0.40;;;20.40;49.80;;;;;;5039858;28;20077;-62
2023/11/15 03:43:41;;;;;;;1.35;0.45;;;20.30;49.80;;;;;;5013321;28;20021;-62
2023/11/15 03:46:07;;;;;;;1.83;0.47;;;20.30;49.80;;;;;;5014985;28;20049;-62
2023/11/15 03:48:33;;;;;;;1.20;0.63;;;20.30;49.80;;;;;;5017661;28;20022;-61
2023/11/15 03:50:59;;;;;;;1.02;0.30;;;20.30;49.80;;;;;;5033799;28;20778;-61
2023/11/15 03:53:25;;;;;;;1.10;0.43;;;20.30;49.90;;;;;;5035299;28;20026;-61
2023/11/15 03:55:52;;;;;;;1.52;0.50;;;20.30;49.90;;;;;;5033794;28;20355;-62
2023/11/15 03:58:18;;;;;;;2.50;0.70;;;20.30;50.00;;;;;;5001188;28;20025;-62
2023/11/15 04:00:44;;;;;;;2.35;0.55;;;20.30;50.00;;;;;;5015540;28;20072;-61
2023/11/15 04:03:10;;;;;;;1.60;0.55;;;20.30;50.00;;;;;;5012968;28;20033;-61
2023/11/15 04:05:36;;;;;;;3.30;0.77;;;20.30;50.00;;;;;;5030891;28;20109;-61
2023/11/15 04:08:02;;;;;;;3.05;0.98;;;20.30;50.10;;;;;;5012405;28;20104;-61
2023/11/15 04:10:28;;;;;;;2.40;0.63;;;20.30;50.10;;;;;;5018575;28;20479;-61
2023/11/15 04:12:54;;;;;;;1.55;0.70;;;20.20;50.10;;;;;;5031350;28;20045;-61
2023/11/15 04:15:22;;;;;;;2.17;0.70;;;20.30;50.10;;;;;;5017157;28;20452;-61
2023/11/15 04:17:49;;;;;;;2.13;0.70;;;20.30;50.20;;;;;;5011153;28;20041;-60
2023/11/15 04:20:15;;;;;;;1.55;0.70;;;20.30;50.10;;;;;;5035890;28;20109;-61
2023/11/15 04:22:41;;;;;;;2.38;0.80;;;20.30;50.20;;;;;;5015849;28;20064;-62
2023/11/15 04:25:08;;;;;;;1.38;0.60;;;20.30;50.20;;;;;;5031867;28;20360;-61
2023/11/15 04:27:34;;;;;;;1.52;0.63;;;20.30;50.20;;;;;;5013572;28;20022;-61
2023/11/15 04:30:00;;;;;;;1.77;0.70;;;20.30;50.30;;;;;;5034927;28;20088;-61
2023/11/15 04:32:26;;;;;;;2.47;0.80;;;20.30;50.30;;;;;;5030816;28;20333;-60
2023/11/15 04:34:52;;;;;;;1.27;0.50;;;20.30;50.30;;;;;;5031676;28;20033;-61
2023/11/15 04:37:19;;;;;;;2.03;0.63;;;20.30;50.30;;;;;;5011792;28;20045;-60
2023/11/15 04:39:47;;;;;;;2.33;0.80;;;20.30;50.90;;;;;;5037389;28;20037;-59
2023/11/15 04:42:13;;;;;;;3.75;0.80;;;20.20;50.30;;;;;;5034031;28;20120;-61
2023/11/15 04:44:39;;;;;;;2.58;0.80;;;20.30;50.40;;;;;;5036059;28;20500;-61
2023/11/15 04:47:05;;;;;;;2.65;0.85;;;20.30;50.40;;;;;;5023429;28;20131;-60
2023/11/15 04:49:31;;;;;;;1.92;0.75;;;20.30;51.00;;;;;;5001716;28;20025;-61
2023/11/15 04:51:57;;;;;;;1.98;0.70;;;20.20;50.40;;;;;;5023753;28;20996;-61
2023/11/15 04:54:23;;;;;;;2.78;1.00;;;20.30;50.40;;;;;;5021715;28;20029;-59
2023/11/15 04:56:49;;;;;;;1.85;0.73;;;20.20;50.40;;;;;;5018730;28;20036;-60
2023/11/15 04:59:15;;;;;;;1.17;0.50;;;20.20;50.40;;;;;;5033852;28;20026;-61
2023/11/15 05:01:45;;;;;;;2.03;0.60;;;20.20;50.40;;;;;;5036891;28;20029;-61
2023/11/15 05:04:12;;;;;;;1.67;0.70;;;20.30;50.40;;;;;;5035406;28;20523;-61
2023/11/15 05:06:38;;;;;;;2.78;1.00;;;20.20;50.40;;;;;;5032158;28;20034;-60
2023/11/15 05:09:03;;;;;;;2.55;0.80;;;20.20;50.40;;;;;;5038577;28;20091;-61
2023/11/15 05:11:29;;;;;;;2.58;0.70;;;20.20;50.40;;;;;;5034658;28;20029;-61
2023/11/15 05:13:55;;;;;;;2.45;0.90;;;20.20;51.00;;;;;;5037578;28;20114;-61
2023/11/15 05:16:21;;;;;;;1.85;0.60;;;20.20;50.40;;;;;;5034263;28;20044;-61
2023/11/15 05:18:47;;;;;;;1.90;0.65;;;20.20;50.40;;;;;;5038411;28;20076;-61
2023/11/15 05:21:13;;;;;;;2.53;1.13;;;20.20;50.40;;;;;;5016147;28;20095;-63
2023/11/15 05:23:39;;;;;;;1.52;0.57;;;20.20;50.40;;;;;;5018819;28;20444;-60
2023/11/15 05:26:06;;;;;;;5.25;1.08;;;20.20;50.40;;;;;;5036339;28;20114;-60
2023/11/15 05:28:32;;;;;;;3.42;1.00;;;20.20;50.50;;;;;;5018907;28;20575;-61
2023/11/15 05:30:58;;;;;;;2.17;1.00;;;20.20;50.40;;;;;;5035205;28;20108;-62
2023/11/15 05:33:24;;;;;;;3.58;0.88;;;20.20;50.50;;;;;;5035551;28;20021;-60
2023/11/15 05:35:51;;;;;;;2.53;1.00;;;20.20;50.50;;;;;;5035954;28;20036;-60
2023/11/15 05:38:19;;;;;;;2.97;0.82;;;20.20;50.50;;;;;;5019316;28;20022;-61
2023/11/15 05:40:45;;;;;;;2.03;0.70;;;20.20;50.50;;;;;;5048805;28;20045;-63
2023/11/15 05:43:11;;;;;;;1.80;0.70;;;20.20;50.50;;;;;;5036673;28;20037;-61
2023/11/15 05:45:37;;;;;;;1.70;0.60;;;20.20;50.50;;;;;;5034447;28;20040;-61
2023/11/15 05:48:03;;;;;;;1.85;0.82;;;20.20;50.50;;;;;;5020268;28;20021;-61
2023/11/15 05:50:29;;;;;;;3.83;0.95;;;20.20;50.60;;;;;;5015104;28;20029;-61
2023/11/15 05:52:55;;;;;;;1.80;0.63;;;20.10;50.50;;;;;;5018474;28;20055;-60
2023/11/15 05:55:21;;;;;;;2.08;0.60;;;20.10;50.50;;;;;;5033614;28;20063;-61
2023/11/15 05:57:48;;;;;;;1.83;0.60;;;20.10;50.50;;;;;;5016168;28;20034;-60
2023/11/15 06:00:18;;;;;;;3.08;1.05;;;20.10;50.60;;;;;;5019474;28;20025;-61
2023/11/15 06:02:48;;;;;;;2.33;0.80;;;20.10;50.60;;;;;;5012141;28;20123;-60
2023/11/15 06:05:15;;;;;;;2.60;0.80;;;20.10;50.60;;;;;;5037158;28;20355;-60
2023/11/15 06:07:41;;;;;;;2.83;0.90;;;20.10;50.60;;;;;;5031740;28;20033;-62
2023/11/15 06:10:08;;;;;;;1.95;0.60;;;20.10;50.70;;;;;;5036708;28;20059;-61
2023/11/15 06:12:39;;;;;;;2.45;0.65;;;20.10;50.70;;;;;;5036656;28;20041;-61
2023/11/15 06:15:08;;;;;;;2.63;0.90;;;20.10;50.70;;;;;;5035075;28;20049;-60
2023/11/15 06:17:35;;;;;;;1.88;0.70;;;20.10;50.70;;;;;;5032587;28;20028;-61
2023/11/15 06:20:02;;;;;;;2.63;1.10;;;20.20;50.80;;;;;;5034961;28;20033;-61
2023/11/15 06:22:28;;;;;;;1.80;0.73;;;20.10;50.80;;;;;;5019959;28;20033;-63
2023/11/15 06:24:54;;;;;;;3.08;0.80;;;20.10;50.80;;;;;;5036386;28;20461;-61
2023/11/15 06:27:20;;;;;;;1.67;0.70;;;20.10;50.80;;;;;;5036942;28;20440;-60
2023/11/15 06:29:47;;;;;;;3.53;1.08;;;20.10;50.80;;;;;;5033902;28;20124;-60
2023/11/15 06:32:14;;;;;;;1.65;0.70;;;20.10;50.80;;;;;;5036183;28;20033;-61
2023/11/15 06:34:39;;;;;;;2.78;0.85;;;20.10;50.80;;;;;;5019267;28;20053;-60
2023/11/15 06:37:06;;;;;;;2.08;0.90;;;20.10;50.80;;;;;;5034977;28;20134;-62
2023/11/15 06:39:32;;;;;;;2.22;0.85;;;20.10;50.90;;;;;;5032694;28;20029;-61
2023/11/15 06:41:58;;;;;;;2.47;1.00;;;20.10;50.90;;;;;;5036981;28;20339;-60
2023/11/15 06:44:24;;;;;;;2.85;1.00;;;20.10;50.90;;;;;;5032294;28;20021;-61
2023/11/15 06:46:50;;;;;;;3.03;1.00;;;20.10;50.90;;;;;;5035823;28;20022;-61
2023/11/15 06:49:17;;;;;;;2.08;0.98;;;20.10;50.90;;;;;;5032175;28;20017;-60
2023/11/15 06:51:50;;;;;;;2.28;0.80;;;20.10;50.90;;;;;;5000094;28;20033;-62
2023/11/15 06:54:16;;;;;;;2.13;0.73;;;20.10;50.90;;;;;;5029661;28;20352;-61
2023/11/15 06:56:48;;;;;;;2.17;0.80;;;20.10;50.90;;;;;;5030729;28;20461;-61
2023/11/15 06:59:17;;;;;;;2.63;0.80;;;20.10;51.00;;;;;;5033551;28;20029;-62
2023/11/15 07:01:48;;;;;;;2.67;0.80;;;20.10;51.00;;;;;;5039043;28;20341;-62
2023/11/15 07:04:15;;;;;;;3.42;1.00;;;20.10;51.00;;;;;;5028531;28;20039;-62
2023/11/15 07:06:47;;;;;;;2.30;0.88;;;20.00;50.90;;;;;;5028649;28;20128;-61
2023/11/15 07:09:18;;;;;;;1.73;0.73;;;20.10;51.00;;;;;;5028192;28;20033;-61
2023/11/15 07:11:47;;;;;;;2.47;0.90;;;20.00;50.90;;;;;;5030354;28;20112;-61
2023/11/15 07:14:17;;;;;;;2.70;0.90;;;20.10;51.00;;;;;;5029138;28;20395;-61
2023/11/15 07:16:47;;;;;;;1.90;0.80;;;20.00;50.90;;;;;;5005708;28;20088;-60
2023/11/15 07:19:15;;;;;;;2.15;0.88;;;20.00;51.00;;;;;;4997295;28;20036;-63
2023/11/15 07:21:41;;;;;;;2.47;0.80;;;20.00;51.00;;;;;;5031267;28;20025;-62
2023/11/15 07:24:09;;;;;;;1.95;0.65;;;20.00;51.00;;;;;;5032229;28;20502;-62
2023/11/15 07:26:35;;;;;;;2.72;0.80;;;20.10;51.10;;;;;;5030925;28;20420;-61
2023/11/15 07:29:09;;;;;;;1.52;0.65;;;20.00;51.00;;;;;;5031332;28;20036;-59
2023/11/15 07:31:35;;;;;;;;;;;20.10;51.10;;;;;;5028884;28;20410;-62
2023/11/15 07:34:05;;;;;;;2.10;0.80;;;20.00;51.00;;;;;;5036231;28;19924;-60
2023/11/15 07:36:33;;;;;;;2.30;0.90;;;20.00;51.10;;;;;;5020387;28;20046;-61
2023/11/15 07:39:04;;;;;;;2.80;0.85;;;20.00;51.10;;;;;;5036506;28;20025;-62
2023/11/15 07:41:31;;;;;;;3.45;0.88;;;20.00;51.10;;;;;;5033440;28;20025;-61
2023/11/15 07:43:58;;;;;;;1.73;0.70;;;20.00;51.00;;;;;;5034565;28;20448;-62
2023/11/15 07:46:24;;;;;;;4.55;0.77;;;20.00;50.90;;;;;;5045748;28;20055;-61
2023/11/15 07:48:51;;;;;;;2.65;0.80;;;20.00;50.90;;;;;;5015799;28;20074;-60
2023/11/15 07:51:18;;;;;;;1.95;0.80;;;20.00;50.80;;;;;;5037036;28;20114;-62
2023/11/15 07:53:45;;;;;;;2.47;0.70;;;20.00;50.80;;;;;;5031602;28;20033;-60
2023/11/15 07:56:11;;;;;;;2.35;0.60;;;20.00;50.70;;;;;;5043804;28;20048;-62
2023/11/15 07:58:38;;;;;;;2.25;0.60;;;20.00;50.60;;;;;;5018659;28;20033;-61
2023/11/15 08:01:04;;;;;;;1.60;0.80;;;20.00;50.60;;;;;;5017719;28;20113;-61
2023/11/15 08:03:30;;;;;;;3.17;1.00;;;20.00;50.50;;;;;;5033078;28;20037;-61
2023/11/15 08:05:56;;;;;;;3.90;0.70;;;20.00;50.50;;;;;;5035508;28;20432;-62
2023/11/15 08:08:22;;;;;;;1.85;0.88;;;20.00;51.10;;;;;;5032274;28;20067;-62
2023/11/15 08:10:50;;;;;;;1.92;0.60;;;20.00;50.50;;;;;;5030977;28;20026;-62
2023/11/15 08:13:20;;;;;;;1.38;0.80;;;20.00;50.50;;;;;;5037317;28;20037;-61
2023/11/15 08:15:47;;;;;;;2.15;1.00;;;20.00;50.50;;;;;;5017841;28;20044;-62
2023/11/15 08:18:14;;;;;;;2.38;0.85;;;20.00;50.50;;;;;;5036210;28;20033;-62
2023/11/15 08:20:43;;;;;;;2.33;0.90;;;20.00;50.50;;;;;;5017647;28;20099;-62
2023/11/15 08:23:12;;;;;;;3.05;1.00;;;20.00;50.60;;;;;;5017117;28;20028;-60
2023/11/15 08:25:47;;;;;;;3.13;1.10;;;20.00;50.60;;;;;;5027757;28;20355;-62
2023/11/15 08:28:13;;;;;;;4.57;1.00;;;20.00;50.80;;;;;;5035808;28;20021;-60
2023/11/15 08:30:39;;;;;;;2.17;0.68;;;20.10;50.90;;;;;;5041952;28;20452;-62
2023/11/15 08:33:05;;;;;;;3.55;1.27;;;20.00;50.90;;;;;;5037200;28;20036;-61
2023/11/15 08:35:32;;;;;;;2.75;0.95;;;20.00;51.00;;;;;;5035735;28;20104;-61
2023/11/15 08:37:58;;;;;;;3.40;0.98;;;20.00;51.10;;;;;;5041188;28;20048;-60
2023/11/15 08:40:25;;;;;;;2.80;0.93;;;20.00;51.20;;;;;;5034764;28;20348;-62
2023/11/15 08:42:51;;;;;;;2.80;0.90;;;20.00;51.20;;;;;;5034529;28;20033;-62
2023/11/15 08:45:19;;;;;;;1.98;0.73;;;20.10;51.20;;;;;;5041855;28;20024;-62
2023/11/15 08:47:47;;;;;;;2.38;1.00;;;20.10;51.20;;;;;;5040611;28;20040;-61
2023/11/15 08:50:14;;;;;;;3.42;1.05;;;20.10;51.20;;;;;;5037400;28;20033;-60
2023/11/15 08:52:41;;;;;;;2.38;0.90;;;20.00;51.20;;;;;;5032562;28;20029;-61
2023/11/15 08:55:08;;;;;;;3.10;0.73;;;20.00;51.20;;;;;;5036835;28;20029;-62
2023/11/15 08:57:35;;;;;;;3.13;1.05;;;20.10;51.20;;;;;;5039896;28;20025;-61
2023/11/15 09:00:03;;;;;;;3.03;1.30;;;20.00;51.20;;;;;;5039504;28;20426;-61
2023/11/15 09:02:31;;;;;;;3.10;1.30;;;20.00;51.20;;;;;;5028659;28;20017;-62
2023/11/15 09:04:57;;;;;;;3.70;1.20;;;20.00;51.20;;;;;;5038975;28;20522;-61
2023/11/15 09:07:23;;;;;;;2.45;1.02;;;20.00;51.20;;;;;;5018261;28;20095;-61
2023/11/15 09:09:49;;;;;;;3.58;1.30;;;20.10;51.20;;;;;;5016046;28;20033;-60
2023/11/15 09:12:17;;;;;;;2.38;0.95;;;20.00;51.20;;;;;;5033532;28;20408;-61
2023/11/15 09:14:44;;;;;;;3.28;0.95;;;20.10;51.20;;;;;;5000531;28;20041;-61
2023/11/15 09:17:16;;;;;;;3.45;1.00;;;20.00;51.20;;;;;;4989805;28;20041;-62
2023/11/15 09:19:49;;;;;;;3.35;1.02;;;20.00;51.20;;;;;;4988884;28;20034;-60
2023/11/15 09:22:19;;;;;;;3.17;1.00;;;20.10;51.20;;;;;;4991223;28;20101;-61
2023/11/15 09:24:46;;;;;;;2.70;1.10;;;20.10;51.20;;;;;;4989546;28;20077;-61
2023/11/15 09:27:13;;;;;;;4.60;1.20;;;20.10;51.20;;;;;;4989909;28;20061;-60
2023/11/15 09:29:38;;;;;;;1.95;0.70;;;20.10;51.20;;;;;;4989848;28;20027;-61
2023/11/15 09:32:05;;;;;;;3.22;0.90;;;20.10;51.20;;;;;;4989040;28;20053;-61
2023/11/15 09:34:30;;;;;;;3.28;1.20;;;20.10;51.20;;;;;;4990020;28;20026;-61
2023/11/15 09:36:57;;;;;;;3.67;1.00;;;20.10;51.20;;;;;;4993536;28;20088;-61
2023/11/15 09:39:23;;;;;;;2.40;0.82;;;20.10;51.10;;;;;;4991091;28;20084;-62
2023/11/15 09:41:53;;;;;;;2.17;0.88;;;20.10;51.10;;;;;;4989909;28;20040;-61
2023/11/15 09:44:23;;;;;;;3.83;1.02;;;20.10;51.10;;;;;;4989217;28;20026;-61
2023/11/15 09:46:57;;;;;;;3.33;1.27;;;20.10;51.00;;;;;;4991063;28;20044;-61
2023/11/15 09:49:26;;;;;;;4.40;1.05;;;20.10;51.00;;;;;;4989645;28;20081;-61
2023/11/15 09:51:52;;;;;;;4.13;0.88;;;20.10;51.00;;;;;;4991206;28;20042;-61
2023/11/15 09:54:22;;;;;;;4.82;1.77;;;20.10;51.00;;;;;;4990387;28;20081;-62
2023/11/15 09:56:49;;;;;;;5.05;1.90;;;20.10;51.10;;;;;;4988354;28;20053;-61
2023/11/15 09:59:18;;;;;;;9.02;3.45;;;20.10;51.40;;;;;;4989484;28;20097;-63
2023/11/15 10:01:48;;;;;;;9.90;4.38;;;20.10;52.20;;;;;;4987563;28;20026;-60
2023/11/15 10:04:30;;;;;;;15.05;4.95;;;20.20;52.70;;;;;;4990247;28;20108;-62
2023/11/15 10:06:57;;;;;;;13.18;4.32;;;20.20;53.40;;;;;;4990161;28;20026;-62
2023/11/15 10:09:36;;;;;;;8.85;3.90;;;20.20;53.50;;;;;;4987824;28;20033;-61
2023/11/15 10:12:04;;;;;;;7.35;3.30;;;20.20;53.50;;;;;;4991546;28;20041;-63
2023/11/15 10:14:32;;;;;;;5.70;2.78;;;20.20;53.30;;;;;;5017013;28;20467;-62
2023/11/15 10:17:00;;;;;;;6.68;2.78;;;20.30;53.20;;;;;;5038928;28;20098;-61
2023/11/15 10:19:28;;;;;;;5.15;2.40;;;20.20;53.10;;;;;;5034537;28;20042;-63
2023/11/15 10:22:00;;;;;;;6.97;2.83;;;20.30;53.00;;;;;;5037892;28;20520;-62
2023/11/15 10:24:28;;;;;;;5.90;2.55;;;20.30;52.80;;;;;;5043179;28;20036;-60
2023/11/15 10:26:59;;;;;;;6.47;2.38;;;20.40;52.70;;;;;;5046351;28;20032;-60
2023/11/15 10:29:26;;;;;;;4.90;1.85;;;20.40;52.50;;;;;;5038875;28;20025;-60
2023/11/15 10:31:56;;;;;;;5.95;1.90;;;20.50;52.30;;;;;;5017641;28;20828;-60
2023/11/15 10:34:29;;;;;;;5.00;1.65;;;20.50;52.20;;;;;;5040783;28;20017;-59
2023/11/15 10:37:07;;;;;;;4.18;1.60;;;20.50;52.10;;;;;;5046165;28;20033;-60
2023/11/15 10:39:43;;;;;;;4.80;1.98;;;20.50;52.00;;;;;;5047514;28;20044;-62
2023/11/15 10:42:14;;;;;;;5.10;1.90;;;20.50;52.00;;;;;;5045851;28;20098;-61
2023/11/15 10:44:47;;;;;;;4.45;1.67;;;20.40;51.90;;;;;;5029350;28;20044;-61
2023/11/15 10:47:19;;;;;;;4.80;2.08;;;20.50;51.90;;;;;;5045741;28;20032;-62
2023/11/15 10:49:56;;;;;;;2.45;1.10;;;20.40;51.80;;;;;;5049874;28;20022;-63
2023/11/15 10:52:24;;;;;;;5.65;1.63;;;20.40;51.80;;;;;;5044534;28;20108;-61
2023/11/15 10:54:55;;;;;;;3.47;1.27;;;20.40;51.70;;;;;;5050191;28;20104;-60
2023/11/15 10:57:22;;;;;;;4.40;1.35;;;20.40;52.20;;;;;;5047565;28;21580;-61
2023/11/15 10:59:52;;;;;;;3.63;1.40;;;20.40;51.50;;;;;;5048716;28;20016;-60
2023/11/15 11:02:20;;;;;;;3.25;1.20;;;20.40;51.50;;;;;;5042808;28;20029;-61
2023/11/15 11:04:47;;;;;;;2.85;1.35;;;20.40;51.40;;;;;;5048947;28;20124;-62
2023/11/15 11:07:57;;;;;;;4.30;1.42;;;20.40;51.40;;;;;;5043800;28;20067;-60
2023/11/15 11:10:34;;;;;;;2.60;1.00;;;20.40;51.30;;;;;;5025278;28;20096;-61
2023/11/15 11:13:15;;;;;;;2.80;1.10;;;20.40;51.30;;;;;;5043481;28;20032;-62
2023/11/15 11:15:42;;;;;;;3.08;1.25;;;20.40;51.30;;;;;;5029026;28;20048;-60
2023/11/15 11:18:19;;;;;;;3.13;1.60;;;20.30;51.20;;;;;;5040450;28;20028;-62
2023/11/15 11:21:02;;;;;;;3.35;1.10;;;20.40;51.20;;;;;;5046112;28;20037;-61
2023/11/15 11:23:30;;;;;;;3.50;1.30;;;20.40;51.10;;;;;;5045175;28;20060;-60
2023/11/15 11:26:34;;;;;;;3.53;1.33;;;20.40;51.10;;;;;;5032003;28;20094;-61
2023/11/15 11:29:03;;;;;;;3.35;1.00;;;20.40;51.00;;;;;;5029793;28;20013;-63
2023/11/15 11:31:30;;;;;;;2.08;0.90;;;20.30;51.00;;;;;;5028008;28;20067;-61
2023/11/15 11:34:10;;;;;;;2.47;1.05;;;20.30;50.90;;;;;;5047576;28;20025;-60
2023/11/15 11:36:57;;;;;;;2.88;1.20;;;20.40;50.90;;;;;;5043811;28;20025;-62
2023/11/15 11:39:46;;;;;;;3.33;1.10;;;20.40;50.80;;;;;;5027095;28;20459;-62
2023/11/15 11:42:25;;;;;;;1.98;0.80;;;20.40;50.80;;;;;;5017923;28;20022;-60
2023/11/15 11:44:57;;;;;;;2.55;1.10;;;20.40;50.80;;;;;;5043281;28;20021;-62
2023/11/15 11:47:23;;;;;;;2.40;0.73;;;20.40;50.80;;;;;;5038155;28;20030;-62
2023/11/15 11:49:51;;;;;;;3.03;1.08;;;20.40;50.70;;;;;;5023990;28;20033;-61
2023/11/15 11:52:18;;;;;;;4.47;1.02;;;20.40;50.70;;;;;;5045062;28;20340;-61
2023/11/15 11:54:52;;;;;;;2.83;0.90;;;20.40;50.60;;;;;;5034467;28;20467;-62
2023/11/15 11:57:24;;;;;;;2.25;0.95;;;20.40;50.60;;;;;;5032048;28;20025;-61
2023/11/15 12:00:11;;;;;;;2.63;1.13;;;20.40;50.60;;;;;;5015902;28;20075;-61
2023/11/15 12:02:41;;;;;;;1.85;0.85;;;20.40;50.50;;;;;;5032343;28;20087;-62
2023/11/15 12:05:07;;;;;;;2.47;0.80;;;20.40;50.50;;;;;;5021582;28;20111;-61
2023/11/15 12:07:40;;;;;;;1.60;0.70;;;20.40;50.50;;;;;;5018437;28;20036;-62
2023/11/15 12:10:06;;;;;;;2.05;0.70;;;20.40;50.50;;;;;;5054326;28;20061;-62
2023/11/15 12:12:35;;;;;;;2.35;0.57;;;20.40;50.40;;;;;;5044831;28;20017;-62
2023/11/15 12:15:01;;;;;;;2.65;0.77;;;20.40;50.40;;;;;;5042353;28;20132;-62
2023/11/15 12:17:40;;;;;;;2.55;1.00;;;20.40;50.40;;;;;;5036829;28;20228;-59
2023/11/15 12:20:10;;;;;;;1.13;0.70;;;20.40;50.40;;;;;;5011795;28;20022;-62
2023/11/15 12:22:43;;;;;;;3.95;1.00;;;20.40;50.40;;;;;;5032016;28;20034;-61
2023/11/15 12:25:13;;;;;;;3.58;0.73;;;20.40;50.40;;;;;;5032160;28;20109;-62
2023/11/15 12:27:43;;;;;;;2.72;1.00;;;20.40;50.40;;;;;;5032415;28;20045;-62
2023/11/15 12:30:10;;;;;;;2.38;0.90;;;20.40;50.30;;;;;;5038036;28;20056;-62
2023/11/15 12:32:42;;;;;;;2.58;0.80;;;20.50;50.30;;;;;;5043836;28;20098;-62
2023/11/15 12:35:11;;;;;;;1.98;1.00;;;20.40;50.20;;;;;;5014704;28;20029;-62
2023/11/15 12:37:38;;;;;;;3.40;0.98;;;20.40;50.10;;;;;;5036249;28;20080;-61
2023/11/15 12:40:20;;;;;;;2.33;0.90;;;20.50;50.20;;;;;;5033068;28;20079;-60
2023/11/15 12:42:54;;;;;;;2.90;0.90;;;20.40;50.10;;;;;;5015079;28;20356;-59
2023/11/15 12:45:32;;;;;;;4.47;0.90;;;20.40;50.20;;;;;;5031304;28;20025;-61
2023/11/15 12:48:07;;;;;;;2.47;0.80;;;20.40;50.20;;;;;;5036487;28;20103;-61
2023/11/15 12:50:36;;;;;;;1.80;0.65;;;20.50;50.20;;;;;;5048123;28;20053;-61
2023/11/15 12:53:10;;;;;;;1.80;0.80;;;20.40;50.20;;;;;;5033227;28;20029;-56